Time;durP1;ratioP1;P1;durP2;ratioP2;P2;SDS_P1;SDS_P2;PMS_P1;PMS_P2;Temp;Humidity;BMP_temperature;BMP_pressure;BME280_temperature;BME280_humidity;BME280_pressure;Samples;Min_cycle;Max_cycle;Signal;HPM_P1;HPM_P2
2023/01/11 00:00:07;;;;;;;1.08;0.30;;;;;;;19.72;37.01;100659.38;16127885;19;130454;-58
2023/01/11 00:05:28;;;;;;;2.42;0.40;;;;;;;19.65;36.89;100660.41;16125662;19;129221;-60
2023/01/11 00:10:50;;;;;;;2.25;0.45;;;;;;;19.61;36.96;100648.16;16127612;19;130844;-56
2023/01/11 00:16:15;;;;;;;1.83;0.50;;;;;;;19.56;36.88;100653.66;16124676;19;129373;-50
2023/01/11 00:21:37;;;;;;;1.77;0.30;;;;;;;19.53;36.99;100645.84;16125882;19;129380;-50
2023/01/11 00:26:59;;;;;;;1.23;0.40;;;;;;;19.49;36.76;100650.22;16127430;19;130207;-54
2023/01/11 00:32:20;;;;;;;1.08;0.30;;;;;;;19.45;37.18;100646.28;16124531;19;129845;-52
2023/01/11 00:37:42;;;;;;;1.17;0.28;;;;;;;19.43;37.07;100640.19;16126149;19;129675;-52
2023/01/11 00:48:44;;;;;;;1.60;0.20;;;;;;;19.35;37.06;100628.44;16121708;19;129499;-50
2023/01/11 00:54:06;;;;;;;1.33;0.30;;;;;;;19.33;37.32;100629.78;16122127;19;129695;-50
2023/01/11 00:59:28;;;;;;;0.50;0.30;;;;;;;19.30;37.26;100620.06;16121655;19;130180;-51
2023/01/11 01:04:50;;;;;;;0.22;0.20;;;;;;;19.28;37.45;100622.25;16119860;19;129694;-53
2023/01/11 01:10:14;;;;;;;1.15;0.22;;;;;;;19.23;37.43;100616.63;16119783;19;129961;-48
2023/01/11 01:15:36;;;;;;;1.42;0.20;;;;;;;19.20;37.78;100614.34;16119132;19;129379;-48
2023/01/11 01:20:58;;;;;;;1.65;0.20;;;;;;;19.17;37.72;100614.88;16119217;19;129050;-49
2023/01/11 01:26:20;;;;;;;2.17;0.30;;;;;;;19.15;37.25;100614.28;16122159;19;128992;-53
2023/01/11 01:31:42;;;;;;;1.10;0.10;;;;;;;19.14;37.56;100609.81;16123250;19;129664;-48
2023/01/11 01:37:06;;;;;;;1.00;0.20;;;;;;;19.12;37.33;100606.47;16119595;19;129644;-50
2023/01/11 01:42:27;;;;;;;1.90;0.25;;;;;;;19.10;37.73;100622.53;16119257;19;129423;-47
2023/01/11 01:47:56;;;;;;;0.75;0.20;;;;;;;19.08;37.83;100623.59;16117401;19;130122;-49
2023/01/11 01:53:27;;;;;;;0.82;0.32;;;;;;;19.07;37.48;100624.72;16118611;19;130102;-49
2023/01/11 01:58:55;;;;;;;0.43;0.20;;;;;;;19.05;37.69;100624.16;16119343;19;129668;-47
2023/01/11 02:04:31;;;;;;;1.23;0.20;;;;;;;19.01;37.95;100620.19;16130256;19;129161;-52
2023/01/11 02:09:53;;;;;;;0.90;0.40;;;;;;;19.01;37.76;100630.47;16132834;19;129589;-47
2023/01/11 02:15:16;;;;;;;1.63;0.30;;;;;;;19.00;37.48;100626.84;16134255;19;129780;-51
2023/01/11 02:21:02;;;;;;;0.68;0.20;;;;;;;18.99;38.07;100618.78;16135700;19;131048;-51
2023/01/11 02:26:35;;;;;;;2.20;0.30;;;;;;;18.94;37.98;100608.47;16131098;19;133551;-52
2023/01/11 02:31:57;;;;;;;0.57;0.20;;;;;;;;;;16132951;19;130533;-49
2023/01/11 02:37:51;;;;;;;1.50;0.30;;;;;;;18.90;38.06;100585.94;16132320;19;129329;-50
2023/01/11 02:49:13;;;;;;;0.57;0.17;;;;;;;18.88;38.33;100587.31;16131365;19;130301;-48
2023/01/11 02:54:37;;;;;;;1.00;0.20;;;;;;;18.85;38.16;100585.91;16130989;19;130119;-49
2023/01/11 03:00:00;;;;;;;0.35;0.20;;;;;;;18.85;38.18;100579.50;16134505;19;129308;-52
2023/01/11 03:05:22;;;;;;;2.85;0.38;;;;;;;18.84;38.09;100588.91;16130205;19;129640;-51
2023/01/11 03:11:02;;;;;;;0.80;0.20;;;;;;;18.84;38.46;100588.91;16131821;19;132437;-49
2023/01/11 03:16:26;;;;;;;0.30;0.30;;;;;;;18.81;38.06;100583.91;16134669;19;130561;-48
2023/01/11 03:21:48;;;;;;;0.70;0.20;;;;;;;18.80;38.51;100596.06;16132059;19;129896;-50
2023/01/11 03:27:10;;;;;;;0.70;0.10;;;;;;;18.80;38.30;100599.66;16130528;19;129466;-50
2023/01/11 03:32:40;;;;;;;0.17;0.13;;;;;;;18.79;38.52;100600.75;16129858;19;129138;-48
2023/01/11 03:38:10;;;;;;;0.10;0.10;;;;;;;18.78;38.21;100593.53;16126663;19;129422;-52
2023/01/11 03:43:35;;;;;;;2.47;0.50;;;;;;;18.77;38.36;100597.41;16128485;19;129356;-49
2023/01/11 03:49:11;;;;;;;0.20;0.10;;;;;;;18.76;38.39;100607.66;16125016;19;129339;-52
2023/01/11 03:54:33;;;;;;;;;;;;;;;18.71;38.44;100595.66;16125827;19;129992;-50
2023/01/11 03:59:54;;;;;;;0.20;0.20;;;;;;;18.72;38.65;100600.94;16128783;19;130487;-50
2023/01/11 04:05:16;;;;;;;0.17;0.10;;;;;;;18.70;38.63;100605.94;16122997;19;129735;-49
2023/01/11 04:10:38;;;;;;;0.77;0.20;;;;;;;18.70;38.42;100617.00;16124990;19;129477;-50
2023/01/11 04:16:00;;;;;;;0.40;0.10;;;;;;;18.69;38.83;100620.00;16127323;19;130633;-48
2023/01/11 04:21:21;;;;;;;0.52;0.10;;;;;;;18.67;38.88;100609.19;16123339;19;129707;-50
2023/01/11 04:26:43;;;;;;;0.00;0.00;;;;;;;18.68;38.92;100621.09;16126441;19;130386;-50
2023/01/11 04:32:05;;;;;;;0.30;0.10;;;;;;;18.66;38.74;100624.16;16124472;19;129867;-48
2023/01/11 04:37:27;;;;;;;0.98;0.57;;;;;;;18.66;38.98;100646.31;16124937;19;129583;-48
2023/01/11 04:42:48;;;;;;;0.40;0.20;;;;;;;18.66;38.95;100642.69;16127117;19;129745;-50
2023/01/11 04:48:10;;;;;;;0.45;0.10;;;;;;;18.64;38.92;100640.19;16123836;19;129911;-48
2023/01/11 04:53:32;;;;;;;0.25;0.10;;;;;;;18.64;38.83;100650.44;16125496;19;129581;-46
2023/01/11 04:58:54;;;;;;;0.25;0.05;;;;;;;18.63;39.11;100648.75;16123842;19;129605;-47
2023/01/11 05:04:16;;;;;;;0.25;0.10;;;;;;;18.61;38.76;100663.69;16122057;19;130838;-49
2023/01/11 05:09:39;;;;;;;0.15;0.10;;;;;;;18.60;39.18;100672.25;16122151;19;129503;-47
2023/01/11 05:15:01;;;;;;;0.17;0.10;;;;;;;18.60;38.78;100666.69;16121868;19;129420;-52
2023/01/11 05:20:23;;;;;;;0.75;0.17;;;;;;;18.58;38.97;100674.44;16122564;19;129320;-49
2023/01/11 05:25:45;;;;;;;0.10;0.05;;;;;;;18.58;38.77;100680.81;16122122;19;129749;-47
2023/01/11 05:31:06;;;;;;;0.15;0.10;;;;;;;18.57;38.77;100684.69;16119597;19;130544;-52
2023/01/11 05:36:28;;;;;;;0.68;0.20;;;;;;;18.56;38.81;100683.00;16128296;19;130082;-47
2023/01/11 05:41:50;;;;;;;0.17;0.10;;;;;;;18.55;39.00;100686.03;16137070;19;129820;-49
2023/01/11 05:47:12;;;;;;;0.28;0.15;;;;;;;18.54;38.88;100698.19;16134518;19;129718;-48
2023/01/11 05:52:34;;;;;;;0.60;0.10;;;;;;;18.54;39.26;100723.13;16133173;19;129705;-52
2023/01/11 05:57:55;;;;;;;0.32;0.05;;;;;;;18.53;38.89;100718.69;16134493;19;129294;-49
2023/01/11 06:03:17;;;;;;;0.08;0.00;;;;;;;18.50;39.39;100722.78;16132327;19;129453;-51
2023/01/11 06:08:39;;;;;;;0.10;0.00;;;;;;;18.56;39.00;100712.66;16132339;19;131247;-49
2023/01/11 06:14:01;;;;;;;0.17;0.03;;;;;;;18.86;38.91;100719.75;16136474;19;129342;-50
2023/01/11 06:19:23;;;;;;;0.28;0.10;;;;;;;19.21;38.45;100729.75;16130972;19;129594;-49
2023/01/11 06:24:44;;;;;;;0.52;0.08;;;;;;;19.49;38.11;100730.69;16131880;19;129326;-52
2023/01/11 06:30:07;;;;;;;1.75;0.10;;;;;;;19.71;38.18;100752.06;16132154;19;129301;-57
2023/01/11 06:35:28;;;;;;;1.10;0.10;;;;;;;19.90;37.75;100756.19;16131026;19;130047;-49
2023/01/11 06:40:56;;;;;;;0.40;0.20;;;;;;;20.08;37.74;100756.97;16130563;19;129530;-51
2023/01/11 06:46:18;;;;;;;2.78;0.35;;;;;;;20.16;38.16;100764.00;16127716;19;129550;-50
2023/01/11 06:51:40;;;;;;;1.40;0.30;;;;;;;20.17;37.68;100769.31;16127905;19;129425;-51
2023/01/11 06:57:01;;;;;;;1.48;0.30;;;;;;;20.13;38.05;100793.16;16129331;19;129952;-49
2023/01/11 07:02:23;;;;;;;2.08;0.52;;;;;;;20.04;38.25;100801.09;16130101;19;130230;-49
2023/01/11 07:07:45;;;;;;;2.15;0.40;;;;;;;19.96;38.15;100798.75;16130641;19;130052;-52
2023/01/11 07:13:07;;;;;;;1.65;0.40;;;;;;;19.86;37.93;100804.16;16131243;19;129863;-50
2023/01/11 07:18:30;;;;;;;2.80;0.30;;;;;;;19.77;38.10;100828.75;16133161;19;129737;-50
2023/01/11 07:23:52;;;;;;;3.38;0.28;;;;;;;19.66;38.29;100834.16;16130113;19;129570;-50
2023/01/11 07:29:14;;;;;;;1.48;0.25;;;;;;;19.57;38.35;100852.31;16129771;19;132570;-48
2023/01/11 07:34:36;;;;;;;6.45;0.73;;;;;;;19.49;38.73;100872.19;16127985;19;129371;-55
2023/01/11 07:39:58;;;;;;;1.35;0.30;;;;;;;19.42;38.51;100871.53;16128129;19;129511;-50
2023/01/11 07:45:20;;;;;;;3.10;0.40;;;;;;;19.34;38.60;100865.31;16129658;19;130431;-52
2023/01/11 07:50:42;;;;;;;6.03;0.60;;;;;;;19.31;38.83;100888.03;16129888;19;128986;-51
2023/01/11 07:56:05;;;;;;;1.13;0.30;;;;;;;19.34;38.77;100901.38;16128524;19;130545;-49
2023/01/11 08:01:27;;;;;;;2.25;0.40;;;;;;;19.53;38.44;100923.31;16125186;19;128895;-49
2023/01/11 08:06:49;;;;;;;2.75;0.70;;;;;;;19.81;38.34;100958.47;16127495;19;129493;-50
2023/01/11 08:17:51;;;;;;;4.40;1.23;;;;;;;20.39;36.99;100971.25;16126161;19;129494;-53
2023/01/11 08:23:13;;;;;;;4.18;0.95;;;;;;;20.52;37.02;100970.03;16126237;19;130079;-55
2023/01/11 08:28:35;;;;;;;4.97;0.90;;;;;;;20.53;36.69;100975.34;16126938;19;130509;-55
2023/01/11 08:33:56;;;;;;;5.05;1.00;;;;;;;20.49;36.73;100988.06;16125724;19;129501;-55
2023/01/11 08:39:18;;;;;;;4.35;1.05;;;;;;;20.41;37.25;100999.63;16125100;19;129517;-57
2023/01/11 08:44:40;;;;;;;6.07;0.93;;;;;;;20.32;37.33;101021.44;16128553;19;129433;-54
2023/01/11 08:50:02;;;;;;;5.32;0.85;;;;;;;20.20;37.05;101027.09;16126160;19;129670;-54
2023/01/11 08:55:23;;;;;;;6.45;0.95;;;;;;;20.09;37.57;101012.22;16126612;19;133412;-55
2023/01/11 09:00:46;;;;;;;4.50;1.05;;;;;;;19.97;37.56;101020.63;16125060;19;129112;-56
2023/01/11 09:06:07;;;;;;;2.53;0.85;;;;;;;19.89;37.74;101031.28;16122286;19;129695;-53
2023/01/11 09:17:09;;;;;;;4.40;0.90;;;;;;;19.75;37.91;101047.44;16125696;19;129436;-55
2023/01/11 09:22:32;;;;;;;1.92;0.70;;;;;;;19.68;37.75;101055.94;16122426;19;129039;-53
2023/01/11 09:27:54;;;;;;;4.10;0.90;;;;;;;19.64;38.11;101063.06;16123199;19;129709;-56
2023/01/11 09:33:16;;;;;;;3.60;0.82;;;;;;;19.58;38.06;101069.63;16121355;19;130080;-55
2023/01/11 09:38:38;;;;;;;2.00;0.73;;;;;;;19.56;38.12;101078.22;16121529;19;129494;-55
2023/01/11 09:44:15;;;;;;;4.00;0.88;;;;;;;19.54;38.08;101085.94;16122442;19;129637;-54
2023/01/11 09:49:40;;;;;;;5.47;0.82;;;;;;;19.50;38.10;101090.31;16121166;19;129163;-55
2023/01/11 09:55:04;;;;;;;4.40;0.80;;;;;;;19.45;38.36;101096.59;16122510;19;130295;-55
2023/01/11 10:01:02;;;;;;;5.57;1.08;;;;;;;19.42;38.33;101101.81;16120396;19;130131;-55
2023/01/11 10:06:31;;;;;;;5.03;1.30;;;;;;;19.37;38.44;101108.94;16117943;19;131672;-51
2023/01/11 10:12:26;;;;;;;2.85;1.00;;;;;;;19.32;38.11;101110.75;16117884;19;129698;-53
2023/01/11 10:18:09;;;;;;;4.30;1.20;;;;;;;19.28;38.18;101118.75;16116937;19;130939;-55
2023/01/11 10:24:40;;;;;;;5.25;1.08;;;;;;;19.27;38.54;101119.81;16128647;19;129488;-54
2023/01/11 10:30:40;;;;;;;4.38;0.82;;;;;;;19.26;38.42;101104.28;16133982;19;129803;-54
2023/01/11 10:41:51;;;;;;;9.32;1.63;;;;;;;19.18;38.50;101101.88;16135085;19;129348;-54
2023/01/11 10:47:18;;;;;;;5.00;1.33;;;;;;;19.16;38.43;101104.03;16129023;19;130449;-53
2023/01/11 10:52:50;;;;;;;8.07;1.50;;;;;;;19.14;38.65;101111.75;16132436;19;128947;-53
2023/01/11 10:58:36;;;;;;;9.80;1.60;;;;;;;19.11;38.67;101112.22;16131672;19;129629;-54
2023/01/11 11:04:23;;;;;;;10.03;1.80;;;;;;;19.13;38.69;101118.38;16130182;19;130569;-55
2023/01/11 11:10:10;;;;;;;9.05;1.50;;;;;;;19.13;39.22;101112.84;16131246;19;130048;-56
2023/01/11 11:15:34;;;;;;;12.32;1.83;;;;;;;19.13;39.00;101119.25;16128390;19;129950;-51
2023/01/11 11:21:03;;;;;;;15.83;1.70;;;;;;;19.13;39.37;101113.69;16129520;19;129535;-54
2023/01/11 11:26:36;;;;;;;8.25;1.75;;;;;;;19.14;39.17;101109.81;16127578;19;129630;-51
2023/01/11 11:31:59;;;;;;;10.90;2.35;;;;;;;19.14;39.00;101109.81;16153992;19;129483;-56
2023/01/11 11:37:33;;;;;;;14.77;2.25;;;;;;;19.14;39.37;101117.28;16128236;19;130254;-56
2023/01/11 11:43:15;;;;;;;11.27;2.35;;;;;;;19.12;38.91;101133.34;16127053;19;129740;-53
2023/01/11 11:48:37;;;;;;;8.77;2.42;;;;;;;19.07;38.98;101131.28;16130098;19;129564;-57
2023/01/11 11:53:59;;;;;;;11.10;2.13;;;;;;;19.05;38.78;101147.31;16130186;19;130139;-55
2023/01/11 11:59:24;;;;;;;10.13;1.80;;;;;;;19.03;39.17;101155.91;16128967;19;129520;-53
2023/01/11 12:04:48;;;;;;;21.33;3.10;;;;;;;18.99;38.84;101146.38;16128536;19;129730;-60
2023/01/11 12:10:14;;;;;;;17.80;3.00;;;;;;;18.95;38.40;101145.19;16126679;19;130941;-62
2023/01/11 12:15:36;;;;;;;17.20;2.88;;;;;;;18.95;37.81;101145.19;16128375;19;129932;-63
2023/01/11 12:21:21;;;;;;;32.72;3.55;;;;;;;18.97;38.01;101136.63;16132620;19;129441;-61
2023/01/11 12:26:58;;;;;;;21.60;3.00;;;;;;;18.95;37.81;101134.09;16131624;19;129701;-60
2023/01/11 12:32:29;;;;;;;18.77;2.78;;;;;;;18.89;37.37;101126.75;16128450;19;129845;-59
2023/01/11 12:38:23;;;;;;;26.83;3.22;;;;;;;18.86;37.67;101130.84;16130137;19;130185;-54
2023/01/11 12:44:03;;;;;;;22.15;3.10;;;;;;;18.84;37.53;101123.84;16133753;19;129917;-56
2023/01/11 12:49:47;;;;;;;21.65;3.58;;;;;;;18.83;37.44;101124.97;16134448;19;129472;-58
2023/01/11 12:55:23;;;;;;;22.65;3.47;;;;;;;18.82;37.51;101120.50;16134987;19;129447;-56
2023/01/11 13:00:48;;;;;;;22.67;3.83;;;;;;;18.84;37.82;101126.63;16133081;19;129425;-56
2023/01/11 13:06:13;;;;;;;32.92;4.20;;;;;;;18.83;37.83;101111.09;16134585;19;129040;-56
2023/01/11 13:11:53;;;;;;;37.17;4.10;;;;;;;18.82;38.07;101126.88;16127096;19;130112;-56
2023/01/11 13:17:40;;;;;;;28.58;3.67;;;;;;;18.84;38.35;101121.06;16130047;19;129409;-56
2023/01/11 13:23:25;;;;;;;25.58;3.15;;;;;;;18.85;38.11;101139.41;16138366;19;129676;-57
2023/01/11 13:29:24;;;;;;;29.40;4.65;;;;;;;18.82;38.24;101134.38;16134837;19;129770;-55
2023/01/11 13:34:53;;;;;;;28.67;4.43;;;;;;;18.74;37.97;101127.25;16129201;19;130275;-57
2023/01/11 13:40:34;;;;;;;33.63;3.92;;;;;;;18.73;38.12;101108.94;16135514;19;129912;-54
2023/01/11 13:46:05;;;;;;;30.13;4.75;;;;;;;18.75;37.85;101107.59;16140742;19;131165;-59
2023/01/11 13:51:34;;;;;;;29.17;4.07;;;;;;;18.75;37.85;101112.31;16137434;19;129267;-57
2023/01/11 13:57:03;;;;;;;27.30;3.75;;;;;;;18.81;37.72;101113.28;16141721;19;129538;-54
2023/01/11 14:02:38;;;;;;;23.77;3.50;;;;;;;18.82;37.40;101107.47;16150046;19;129774;-58
2023/01/11 14:08:02;;;;;;;21.33;3.92;;;;;;;18.84;37.25;101118.31;16142015;19;129959;-57
2023/01/11 14:19:38;;;;;;;23.25;3.22;;;;;;;18.86;37.73;101108.69;16134956;19;130759;-57
2023/01/11 14:25:43;;;;;;;40.53;4.60;;;;;;;18.83;37.71;101125.78;16133856;19;129625;-57
2023/01/11 14:31:46;;;;;;;32.78;4.18;;;;;;;18.82;37.61;101134.38;16132088;19;129620;-57
2023/01/11 14:37:32;;;;;;;16.25;3.70;;;;;;;18.82;37.87;101123.28;16135770;19;129729;-57
2023/01/11 14:43:09;;;;;;;26.20;3.67;;;;;;;18.82;37.44;101128.81;16137429;19;132343;-56
2023/01/11 14:48:51;;;;;;;31.65;3.70;;;;;;;18.80;37.73;101131.81;16139957;19;129501;-57
2023/01/11 14:54:20;;;;;;;17.65;3.03;;;;;;;18.82;37.34;101140.72;16137541;19;130252;-58
2023/01/11 14:59:41;;;;;;;18.52;3.20;;;;;;;18.84;37.66;101140.47;16140459;19;129556;-56
2023/01/11 15:05:05;;;;;;;13.77;2.80;;;;;;;18.81;37.31;101139.03;16138563;19;129949;-57
2023/01/11 15:10:29;;;;;;;24.08;2.50;;;;;;;18.77;37.82;101152.56;16131198;19;129372;-57
2023/01/11 15:21:48;;;;;;;18.15;2.67;;;;;;;18.70;37.96;101154.63;16138354;19;130826;-55
2023/01/11 15:27:25;;;;;;;19.20;2.93;;;;;;;18.68;37.72;101162.31;16133109;19;130413;-56
2023/01/11 15:32:47;;;;;;;13.43;2.17;;;;;;;18.63;37.62;101164.97;16132434;19;129413;-57
2023/01/11 15:38:23;;;;;;;15.70;2.42;;;;;;;18.63;38.14;101180.75;16128638;19;128967;-57
2023/01/11 15:44:04;;;;;;;;;;;;;;;18.55;37.82;101168.09;16139798;19;129946;-55
2023/01/11 15:49:28;;;;;;;11.60;1.92;;;;;;;18.56;37.93;101167.00;16130744;19;130970;-57
2023/01/11 15:55:22;;;;;;;8.32;1.75;;;;;;;18.54;38.27;101164.47;16140353;19;129397;-56
2023/01/11 16:01:01;;;;;;;11.32;1.60;;;;;;;18.53;37.92;101164.72;16139458;19;131788;-56
2023/01/11 16:06:45;;;;;;;8.95;1.63;;;;;;;18.51;38.07;101172.41;16127561;19;129421;-54
2023/01/11 16:12:44;;;;;;;10.63;2.42;;;;;;;18.50;38.21;101188.22;16125532;19;129897;-56
2023/01/11 16:18:16;;;;;;;12.48;2.22;;;;;;;18.49;37.92;101196.75;16125670;19;130176;-56
2023/01/11 16:23:40;;;;;;;14.27;1.60;;;;;;;18.46;38.27;101210.00;16124931;19;129631;-56
2023/01/11 16:29:17;;;;;;;9.13;1.70;;;;;;;18.45;38.23;101191.69;16129631;19;129467;-56
2023/01/11 16:34:41;;;;;;;11.20;1.90;;;;;;;18.44;38.25;101190.00;16127998;19;134201;-56
2023/01/11 16:40:20;;;;;;;8.50;2.05;;;;;;;18.46;38.10;101192.53;16125385;19;129692;-57
2023/01/11 16:45:45;;;;;;;11.25;1.70;;;;;;;18.43;38.31;101191.09;16130747;19;129253;-56
2023/01/11 16:51:10;;;;;;;10.50;1.92;;;;;;;18.41;37.94;101198.78;16124444;19;129478;-57
2023/01/11 16:56:34;;;;;;;18.27;2.23;;;;;;;18.38;38.34;101196.47;16123374;19;129127;-54
2023/01/11 17:01:58;;;;;;;7.45;1.60;;;;;;;18.37;38.22;101186.47;16122073;19;130678;-56
2023/01/11 17:07:28;;;;;;;6.67;1.47;;;;;;;18.46;38.23;101193.38;16121743;19;130036;-55
2023/01/11 17:19:15;;;;;;;5.85;1.40;;;;;;;19.36;37.75;101201.56;16120611;19;130023;-56
2023/01/11 17:24:45;;;;;;;9.55;1.70;;;;;;;19.84;36.99;101195.84;16115243;19;129658;-53
2023/01/11 17:30:18;;;;;;;9.55;1.90;;;;;;;20.26;36.95;101192.78;16118957;19;129514;-56
2023/01/11 17:35:40;;;;;;;6.60;1.73;;;;;;;20.52;36.74;101193.22;16140418;19;130845;-56
2023/01/11 17:45:11;;;;;;;6.28;1.40;;;;;;;20.62;36.57;101178.63;16135829;19;129813;-55
2023/01/11 17:46:47;;;;;;;7.97;1.60;;;;;;;20.61;36.72;101171.41;16140114;19;129770;-58
2023/01/11 17:52:17;;;;;;;11.52;1.70;;;;;;;20.53;36.48;101164.34;16132177;19;129179;-58
2023/01/11 17:57:39;;;;;;;11.00;2.20;;;;;;;20.42;37.09;101165.25;16136907;19;133942;-53
2023/01/11 18:03:09;;;;;;;13.10;1.85;;;;;;;20.31;37.13;101166.19;16133937;19;129400;-57
2023/01/11 18:08:30;;;;;;;7.88;1.70;;;;;;;20.16;37.26;101159.28;16129502;19;129584;-56
2023/01/11 18:13:56;;;;;;;11.63;2.00;;;;;;;20.04;37.00;101173.22;16131722;19;130000;-54
2023/01/11 18:19:30;;;;;;;8.75;1.48;;;;;;;19.94;37.28;101184.09;16131432;19;129698;-55
2023/01/11 18:24:53;;;;;;;11.10;1.85;;;;;;;19.84;37.48;101190.31;16131215;19;129516;-52
2023/01/11 18:30:55;;;;;;;19.70;1.90;;;;;;;19.75;37.96;101186.25;16131363;19;129455;-55
2023/01/11 18:36:19;;;;;;;20.52;2.60;;;;;;;19.82;37.84;101175.81;16129857;19;130292;-53
2023/01/11 18:47:28;;;;;;;9.93;1.90;;;;;;;20.34;36.90;101171.22;16134715;19;129353;-56
2023/01/11 18:52:49;;;;;;;15.60;1.73;;;;;;;20.62;36.74;101155.56;16130764;19;130458;-56
2023/01/11 18:58:11;;;;;;;13.23;1.90;;;;;;;20.88;35.75;101149.31;16129687;19;129989;-58
2023/01/11 19:03:34;;;;;;;10.68;1.95;;;;;;;21.13;35.59;101141.56;16124932;19;130275;-55
2023/01/11 19:08:55;;;;;;;9.05;1.80;;;;;;;21.31;35.33;101118.13;16129613;19;129698;-59
2023/01/11 19:14:17;;;;;;;8.45;1.80;;;;;;;21.44;34.87;101101.03;16128451;19;129311;-60
2023/01/11 19:19:39;;;;;;;7.47;1.83;;;;;;;21.59;34.67;101099.56;16108132;19;132393;-56
2023/01/11 19:25:01;;;;;;;11.73;1.83;;;;;;;21.71;34.73;101097.44;16129472;19;129311;-56
2023/01/11 19:30:23;;;;;;;7.38;1.65;;;;;;;21.81;34.65;101097.53;16128512;19;129570;-59
2023/01/11 19:35:48;;;;;;;9.73;1.42;;;;;;;21.86;34.36;101079.22;16126374;19;129589;-58
2023/01/11 19:41:11;;;;;;;;;;;;;;;21.85;34.42;101071.97;16129565;19;130184;-56
2023/01/11 19:46:32;;;;;;;12.13;1.77;;;;;;;21.77;33.88;101088.06;16128352;19;130012;-58
2023/01/11 19:51:54;;;;;;;9.40;2.20;;;;;;;21.61;34.01;101078.69;16127589;19;129882;-57
2023/01/11 19:57:19;;;;;;;12.38;1.55;;;;;;;21.46;34.01;101043.16;16126865;19;130761;-60
2023/01/11 20:02:42;;;;;;;8.50;1.40;;;;;;;21.36;33.93;101065.31;16129860;19;129119;-59
2023/01/11 20:08:04;;;;;;;5.90;1.58;;;;;;;21.35;34.21;101044.16;16130733;19;134531;-60
2023/01/11 20:13:25;;;;;;;6.68;1.77;;;;;;;21.41;34.50;101034.78;16127314;19;130315;-56
2023/01/11 20:18:54;;;;;;;6.50;1.60;;;;;;;21.49;34.23;101014.84;16128463;19;129543;-58
2023/01/11 20:24:16;;;;;;;10.55;2.17;;;;;;;21.55;34.26;101023.22;16125504;19;129539;-60
2023/01/11 20:29:38;;;;;;;7.97;1.90;;;;;;;21.60;34.38;101020.50;16126646;19;130302;-59
2023/01/11 20:34:59;;;;;;;8.68;1.70;;;;;;;21.56;34.26;101053.59;16120642;19;130719;-59
2023/01/11 20:40:21;;;;;;;11.30;1.92;;;;;;;21.49;34.29;101059.38;16123151;19;130171;-59
2023/01/11 20:45:54;;;;;;;11.60;1.65;;;;;;;21.43;34.43;101060.38;16127768;19;129748;-59
2023/01/11 20:51:15;;;;;;;11.65;2.03;;;;;;;21.31;34.40;101062.47;16122239;19;129537;-58
2023/01/11 20:56:38;;;;;;;11.98;1.80;;;;;;;21.20;34.70;101089.34;16122076;19;129807;-59
2023/01/11 21:02:00;;;;;;;10.20;1.70;;;;;;;21.15;34.62;101097.63;16122049;19;129644;-59
2023/01/11 21:07:21;;;;;;;9.38;1.70;;;;;;;21.16;34.67;101094.63;16122123;19;129612;-58
2023/01/11 21:12:43;;;;;;;5.47;1.30;;;;;;;21.23;34.80;101099.97;16127480;19;129499;-59
2023/01/11 21:18:06;;;;;;;5.30;1.42;;;;;;;21.27;34.67;101095.56;16118401;19;129431;-59
2023/01/11 21:23:27;;;;;;;6.90;1.67;;;;;;;21.25;34.66;101091.34;16119216;19;131230;-56
2023/01/11 21:28:52;;;;;;;5.32;1.35;;;;;;;21.21;34.75;101083.53;16122630;19;129914;-60
2023/01/11 21:34:14;;;;;;;3.80;1.25;;;;;;;21.18;34.70;101103.50;16119198;19;129962;-59
2023/01/11 21:39:36;;;;;;;7.53;1.42;;;;;;;21.12;35.11;101093.44;16122320;19;130022;-57
2023/01/11 21:44:57;;;;;;;2.70;1.08;;;;;;;21.03;35.00;101095.00;16119636;19;129979;-58
2023/01/11 21:50:19;;;;;;;7.72;1.65;;;;;;;20.94;35.24;101102.09;16120843;19;130892;-59
2023/01/11 21:55:41;;;;;;;4.93;1.13;;;;;;;20.82;35.52;101094.72;16119802;19;130080;-59
2023/01/11 22:01:10;;;;;;;3.70;1.08;;;;;;;20.74;35.63;101086.78;16120251;19;129651;-59
2023/01/11 22:06:41;;;;;;;2.85;0.70;;;;;;;20.67;35.32;101091.72;16119526;19;129571;-59
2023/01/11 22:12:03;;;;;;;2.53;0.90;;;;;;;20.56;35.67;101069.31;16117823;19;129280;-59
2023/01/11 22:17:24;;;;;;;4.00;1.20;;;;;;;20.47;35.90;101065.28;16119014;19;130140;-59
2023/01/11 22:22:46;;;;;;;2.83;0.73;;;;;;;20.39;35.80;101062.94;16133829;19;129771;-59
2023/01/11 22:28:08;;;;;;;5.03;1.17;;;;;;;20.30;35.86;101051.44;16130419;19;129652;-59
2023/01/11 22:33:30;;;;;;;3.17;0.90;;;;;;;20.22;35.81;101068.53;16127194;19;129579;-59
2023/01/11 22:38:53;;;;;;;3.50;0.90;;;;;;;20.16;35.75;101048.16;16127759;19;129897;-59
2023/01/11 22:44:15;;;;;;;5.47;0.95;;;;;;;20.08;35.76;101043.88;16131982;19;129746;-58
2023/01/11 22:49:36;;;;;;;3.38;0.88;;;;;;;20.02;35.93;101064.31;16135904;19;129634;-59
2023/01/11 22:54:58;;;;;;;4.70;0.80;;;;;;;19.97;35.94;101051.16;16131709;19;129565;-59
2023/01/11 23:00:20;;;;;;;3.22;0.80;;;;;;;19.91;36.38;101041.06;16133136;19;129390;-59
2023/01/11 23:05:46;;;;;;;2.72;0.77;;;;;;;19.85;36.43;101053.19;16134391;19;130921;-59
2023/01/11 23:17:16;;;;;;;2.13;0.70;;;;;;;19.74;36.38;101031.88;16133446;19;129714;-58
2023/01/11 23:22:38;;;;;;;2.88;0.60;;;;;;;19.69;36.35;101030.69;16133029;19;129397;-58
2023/01/11 23:28:00;;;;;;;2.00;0.60;;;;;;;19.65;36.16;101043.41;16130951;19;129487;-59
2023/01/11 23:33:22;;;;;;;1.60;0.50;;;;;;;19.61;36.60;101022.78;16131796;19;129343;-58
2023/01/11 23:38:45;;;;;;;3.47;0.70;;;;;;;19.57;36.69;101032.69;16133987;19;133470;-59
2023/01/11 23:44:09;;;;;;;2.47;0.98;;;;;;;19.54;36.35;101047.09;16131975;19;129686;-58
2023/01/11 23:49:31;;;;;;;3.05;0.70;;;;;;;19.50;36.49;101049.53;16132173;19;129258;-58
2023/01/11 23:54:54;;;;;;;2.88;0.90;;;;;;;19.49;36.26;101038.66;16128075;19;129474;-59
